sensor_id;sensor_type;location;lat;lon;timestamp;P1;durP1;ratioP1;P2;durP2;ratioP2
77449;SDS011;66536;53.150;18.172;2023-06-22T00:02:21;11.40;;;9.80;;
77449;SDS011;66536;53.150;18.172;2023-06-22T00:04:48;16.20;;;10.00;;
77449;SDS011;66536;53.150;18.172;2023-06-22T00:07:13;12.80;;;9.20;;
77449;SDS011;66536;53.150;18.172;2023-06-22T00:09:39;11.30;;;9.90;;
77449;SDS011;66536;53.150;18.172;2023-06-22T00:12:05;12.10;;;9.20;;
77449;SDS011;66536;53.150;18.172;2023-06-22T00:14:32;15.80;;;10.10;;
77449;SDS011;66536;53.150;18.172;2023-06-22T00:16:58;12.00;;;10.30;;
77449;SDS011;66536;53.150;18.172;2023-06-22T00:19:24;11.30;;;9.60;;
77449;SDS011;66536;53.150;18.172;2023-06-22T00:21:50;13.50;;;10.20;;
77449;SDS011;66536;53.150;18.172;2023-06-22T00:24:19;11.30;;;9.50;;
77449;SDS011;66536;53.150;18.172;2023-06-22T00:26:45;14.50;;;10.20;;
77449;SDS011;66536;53.150;18.172;2023-06-22T00:29:13;12.00;;;10.60;;
77449;SDS011;66536;53.150;18.172;2023-06-22T00:31:38;12.40;;;10.70;;
77449;SDS011;66536;53.150;18.172;2023-06-22T00:34:04;18.90;;;12.10;;
77449;SDS011;66536;53.150;18.172;2023-06-22T00:36:35;14.50;;;10.60;;
77449;SDS011;66536;53.150;18.172;2023-06-22T00:39:02;15.90;;;10.60;;
77449;SDS011;66536;53.150;18.172;2023-06-22T00:41:29;15.70;;;10.50;;
77449;SDS011;66536;53.150;18.172;2023-06-22T00:43:56;14.30;;;10.90;;
77449;SDS011;66536;53.150;18.172;2023-06-22T00:46:23;12.40;;;10.70;;
77449;SDS011;66536;53.150;18.172;2023-06-22T00:48:50;15.70;;;11.80;;
77449;SDS011;66536;53.150;18.172;2023-06-22T00:51:18;12.70;;;10.00;;
77449;SDS011;66536;53.150;18.172;2023-06-22T00:53:50;12.60;;;10.60;;
77449;SDS011;66536;53.150;18.172;2023-06-22T00:56:18;12.40;;;10.00;;
77449;SDS011;66536;53.150;18.172;2023-06-22T00:58:45;14.30;;;10.20;;
77449;SDS011;66536;53.150;18.172;2023-06-22T01:01:13;12.80;;;10.90;;
77449;SDS011;66536;53.150;18.172;2023-06-22T01:03:39;16.20;;;10.80;;
77449;SDS011;66536;53.150;18.172;2023-06-22T01:06:07;13.00;;;10.10;;
77449;SDS011;66536;53.150;18.172;2023-06-22T01:08:42;12.50;;;10.20;;
77449;SDS011;66536;53.150;18.172;2023-06-22T01:11:20;12.50;;;9.30;;
77449;SDS011;66536;53.150;18.172;2023-06-22T01:14:14;12.10;;;8.60;;
77449;SDS011;66536;53.150;18.172;2023-06-22T01:16:47;12.30;;;9.20;;
77449;SDS011;66536;53.150;18.172;2023-06-22T01:22:02;12.10;;;9.40;;
77449;SDS011;66536;53.150;18.172;2023-06-22T01:24:33;12.80;;;9.20;;
77449;SDS011;66536;53.150;18.172;2023-06-22T01:27:32;11.10;;;8.00;;
77449;SDS011;66536;53.150;18.172;2023-06-22T01:30:18;11.30;;;7.90;;
77449;SDS011;66536;53.150;18.172;2023-06-22T01:32:45;11.40;;;7.80;;
77449;SDS011;66536;53.150;18.172;2023-06-22T01:35:13;9.10;;;7.20;;
77449;SDS011;66536;53.150;18.172;2023-06-22T01:37:40;10.80;;;7.40;;
77449;SDS011;66536;53.150;18.172;2023-06-22T01:40:06;10.20;;;7.80;;
77449;SDS011;66536;53.150;18.172;2023-06-22T01:42:34;8.30;;;6.70;;
77449;SDS011;66536;53.150;18.172;2023-06-22T01:45:02;12.60;;;7.40;;
77449;SDS011;66536;53.150;18.172;2023-06-22T01:47:30;10.10;;;7.20;;
77449;SDS011;66536;53.150;18.172;2023-06-22T01:49:56;8.70;;;7.30;;
77449;SDS011;66536;53.150;18.172;2023-06-22T01:52:22;8.20;;;6.90;;
77449;SDS011;66536;53.150;18.172;2023-06-22T01:54:49;10.10;;;6.20;;
77449;SDS011;66536;53.150;18.172;2023-06-22T01:57:15;8.00;;;6.30;;
77449;SDS011;66536;53.150;18.172;2023-06-22T01:59:48;9.20;;;6.10;;
77449;SDS011;66536;53.150;18.172;2023-06-22T02:02:25;7.60;;;5.50;;
77449;SDS011;66536;53.150;18.172;2023-06-22T02:05:02;7.80;;;6.30;;
77449;SDS011;66536;53.150;18.172;2023-06-22T02:07:33;9.80;;;6.70;;
77449;SDS011;66536;53.150;18.172;2023-06-22T02:10:06;7.90;;;5.80;;
77449;SDS011;66536;53.150;18.172;2023-06-22T02:12:33;7.70;;;5.90;;
77449;SDS011;66536;53.150;18.172;2023-06-22T02:15:01;12.20;;;7.20;;
77449;SDS011;66536;53.150;18.172;2023-06-22T02:17:28;11.00;;;6.80;;
77449;SDS011;66536;53.150;18.172;2023-06-22T02:20:00;9.10;;;6.30;;
77449;SDS011;66536;53.150;18.172;2023-06-22T02:22:46;9.80;;;6.80;;
77449;SDS011;66536;53.150;18.172;2023-06-22T02:25:12;8.70;;;6.80;;
77449;SDS011;66536;53.150;18.172;2023-06-22T02:27:58;9.80;;;6.70;;
77449;SDS011;66536;53.150;18.172;2023-06-22T02:30:24;13.70;;;6.50;;
77449;SDS011;66536;53.150;18.172;2023-06-22T02:32:50;9.40;;;5.90;;
77449;SDS011;66536;53.150;18.172;2023-06-22T02:35:26;8.30;;;5.70;;
77449;SDS011;66536;53.150;18.172;2023-06-22T02:37:58;7.60;;;5.90;;
77449;SDS011;66536;53.150;18.172;2023-06-22T02:40:26;7.90;;;6.00;;
77449;SDS011;66536;53.150;18.172;2023-06-22T02:42:53;8.90;;;5.40;;
77449;SDS011;66536;53.150;18.172;2023-06-22T02:45:19;10.60;;;5.20;;
77449;SDS011;66536;53.150;18.172;2023-06-22T02:47:45;8.70;;;5.80;;
77449;SDS011;66536;53.150;18.172;2023-06-22T02:50:13;9.70;;;5.40;;
77449;SDS011;66536;53.150;18.172;2023-06-22T02:52:39;7.30;;;5.40;;
77449;SDS011;66536;53.150;18.172;2023-06-22T02:55:06;8.80;;;6.20;;
77449;SDS011;66536;53.150;18.172;2023-06-22T02:57:34;8.20;;;6.10;;
77449;SDS011;66536;53.150;18.172;2023-06-22T03:00:01;11.00;;;5.60;;
77449;SDS011;66536;53.150;18.172;2023-06-22T03:02:29;8.90;;;6.10;;
77449;SDS011;66536;53.150;18.172;2023-06-22T03:04:55;8.50;;;6.60;;
77449;SDS011;66536;53.150;18.172;2023-06-22T03:07:22;9.20;;;6.20;;
77449;SDS011;66536;53.150;18.172;2023-06-22T03:09:48;9.00;;;6.10;;
77449;SDS011;66536;53.150;18.172;2023-06-22T03:12:14;11.60;;;6.70;;
77449;SDS011;66536;53.150;18.172;2023-06-22T03:14:46;12.70;;;6.60;;
77449;SDS011;66536;53.150;18.172;2023-06-22T03:17:14;8.50;;;6.10;;
77449;SDS011;66536;53.150;18.172;2023-06-22T03:19:40;8.90;;;6.00;;
77449;SDS011;66536;53.150;18.172;2023-06-22T03:22:06;10.20;;;6.20;;
77449;SDS011;66536;53.150;18.172;2023-06-22T03:24:33;9.30;;;6.50;;
77449;SDS011;66536;53.150;18.172;2023-06-22T03:27:00;9.40;;;5.90;;
77449;SDS011;66536;53.150;18.172;2023-06-22T03:29:26;7.90;;;6.00;;
77449;SDS011;66536;53.150;18.172;2023-06-22T03:31:52;8.10;;;5.50;;
77449;SDS011;66536;53.150;18.172;2023-06-22T03:34:18;8.60;;;5.30;;
77449;SDS011;66536;53.150;18.172;2023-06-22T03:36:44;5.70;;;4.60;;
77449;SDS011;66536;53.150;18.172;2023-06-22T03:39:11;9.50;;;4.90;;
77449;SDS011;66536;53.150;18.172;2023-06-22T03:41:37;5.60;;;4.80;;
77449;SDS011;66536;53.150;18.172;2023-06-22T03:44:02;6.10;;;4.70;;
77449;SDS011;66536;53.150;18.172;2023-06-22T03:46:28;6.20;;;4.80;;
77449;SDS011;66536;53.150;18.172;2023-06-22T03:48:54;5.80;;;4.20;;
77449;SDS011;66536;53.150;18.172;2023-06-22T03:51:21;7.50;;;4.80;;
77449;SDS011;66536;53.150;18.172;2023-06-22T03:53:46;7.00;;;4.70;;
77449;SDS011;66536;53.150;18.172;2023-06-22T03:56:13;7.00;;;4.80;;
77449;SDS011;66536;53.150;18.172;2023-06-22T03:58:45;10.90;;;4.50;;
77449;SDS011;66536;53.150;18.172;2023-06-22T04:01:11;7.20;;;4.70;;
77449;SDS011;66536;53.150;18.172;2023-06-22T04:03:38;8.70;;;4.70;;
77449;SDS011;66536;53.150;18.172;2023-06-22T04:06:04;7.40;;;4.90;;
77449;SDS011;66536;53.150;18.172;2023-06-22T04:08:30;7.50;;;4.70;;
77449;SDS011;66536;53.150;18.172;2023-06-22T04:10:56;9.40;;;4.90;;
77449;SDS011;66536;53.150;18.172;2023-06-22T04:13:22;7.80;;;4.60;;
77449;SDS011;66536;53.150;18.172;2023-06-22T04:15:48;6.10;;;4.70;;
77449;SDS011;66536;53.150;18.172;2023-06-22T04:18:14;7.30;;;4.40;;
77449;SDS011;66536;53.150;18.172;2023-06-22T04:20:40;8.50;;;4.90;;
77449;SDS011;66536;53.150;18.172;2023-06-22T04:23:25;7.20;;;4.50;;
77449;SDS011;66536;53.150;18.172;2023-06-22T04:25:51;7.10;;;4.20;;
77449;SDS011;66536;53.150;18.172;2023-06-22T04:28:17;10.00;;;4.90;;
77449;SDS011;66536;53.150;18.172;2023-06-22T04:30:43;7.60;;;4.60;;
77449;SDS011;66536;53.150;18.172;2023-06-22T04:33:14;6.70;;;4.80;;
77449;SDS011;66536;53.150;18.172;2023-06-22T04:35:40;9.50;;;5.30;;
77449;SDS011;66536;53.150;18.172;2023-06-22T04:38:07;9.30;;;5.10;;
77449;SDS011;66536;53.150;18.172;2023-06-22T04:40:34;6.40;;;4.80;;
77449;SDS011;66536;53.150;18.172;2023-06-22T04:43:00;7.50;;;5.30;;
77449;SDS011;66536;53.150;18.172;2023-06-22T04:45:28;9.50;;;4.90;;
77449;SDS011;66536;53.150;18.172;2023-06-22T04:47:55;7.00;;;5.00;;
77449;SDS011;66536;53.150;18.172;2023-06-22T04:50:21;7.00;;;5.00;;
77449;SDS011;66536;53.150;18.172;2023-06-22T04:52:49;8.70;;;5.20;;
77449;SDS011;66536;53.150;18.172;2023-06-22T04:55:16;14.60;;;5.30;;
77449;SDS011;66536;53.150;18.172;2023-06-22T04:57:45;7.60;;;5.00;;
77449;SDS011;66536;53.150;18.172;2023-06-22T05:00:16;7.10;;;5.00;;
77449;SDS011;66536;53.150;18.172;2023-06-22T05:03:02;7.90;;;5.10;;
77449;SDS011;66536;53.150;18.172;2023-06-22T05:05:29;6.10;;;5.20;;
77449;SDS011;66536;53.150;18.172;2023-06-22T05:07:56;13.70;;;5.50;;
77449;SDS011;66536;53.150;18.172;2023-06-22T05:10:25;9.30;;;5.10;;
77449;SDS011;66536;53.150;18.172;2023-06-22T05:12:51;6.40;;;4.90;;
77449;SDS011;66536;53.150;18.172;2023-06-22T05:15:17;8.50;;;5.40;;
77449;SDS011;66536;53.150;18.172;2023-06-22T05:17:45;7.90;;;5.30;;
77449;SDS011;66536;53.150;18.172;2023-06-22T05:20:11;6.00;;;4.60;;
77449;SDS011;66536;53.150;18.172;2023-06-22T05:22:39;6.30;;;4.80;;
77449;SDS011;66536;53.150;18.172;2023-06-22T05:25:24;6.80;;;4.40;;
77449;SDS011;66536;53.150;18.172;2023-06-22T05:28:10;10.00;;;4.80;;
77449;SDS011;66536;53.150;18.172;2023-06-22T05:30:36;6.30;;;4.90;;
77449;SDS011;66536;53.150;18.172;2023-06-22T05:33:03;8.20;;;4.80;;
77449;SDS011;66536;53.150;18.172;2023-06-22T05:35:29;9.90;;;4.90;;
77449;SDS011;66536;53.150;18.172;2023-06-22T05:37:55;7.80;;;4.80;;
77449;SDS011;66536;53.150;18.172;2023-06-22T05:40:21;7.80;;;4.80;;
77449;SDS011;66536;53.150;18.172;2023-06-22T05:42:47;8.20;;;4.80;;
77449;SDS011;66536;53.150;18.172;2023-06-22T05:45:13;10.00;;;4.70;;
77449;SDS011;66536;53.150;18.172;2023-06-22T05:47:39;6.80;;;4.40;;
77449;SDS011;66536;53.150;18.172;2023-06-22T05:50:05;7.40;;;4.80;;
77449;SDS011;66536;53.150;18.172;2023-06-22T05:52:34;7.90;;;4.20;;
77449;SDS011;66536;53.150;18.172;2023-06-22T05:55:01;8.60;;;4.40;;
77449;SDS011;66536;53.150;18.172;2023-06-22T05:57:28;8.10;;;4.40;;
77449;SDS011;66536;53.150;18.172;2023-06-22T05:59:54;5.90;;;4.30;;
77449;SDS011;66536;53.150;18.172;2023-06-22T06:02:20;9.10;;;4.00;;
77449;SDS011;66536;53.150;18.172;2023-06-22T06:04:46;7.10;;;4.30;;
77449;SDS011;66536;53.150;18.172;2023-06-22T06:07:12;8.30;;;4.20;;
77449;SDS011;66536;53.150;18.172;2023-06-22T06:09:37;6.30;;;4.10;;
77449;SDS011;66536;53.150;18.172;2023-06-22T06:12:04;13.20;;;4.30;;
77449;SDS011;66536;53.150;18.172;2023-06-22T06:14:30;8.60;;;3.90;;
77449;SDS011;66536;53.150;18.172;2023-06-22T06:16:56;6.60;;;4.10;;
77449;SDS011;66536;53.150;18.172;2023-06-22T06:19:22;6.00;;;3.70;;
77449;SDS011;66536;53.150;18.172;2023-06-22T06:21:48;6.30;;;4.20;;
77449;SDS011;66536;53.150;18.172;2023-06-22T06:24:13;7.00;;;4.10;;
77449;SDS011;66536;53.150;18.172;2023-06-22T06:26:40;8.00;;;4.30;;
77449;SDS011;66536;53.150;18.172;2023-06-22T06:29:06;12.40;;;4.40;;
77449;SDS011;66536;53.150;18.172;2023-06-22T06:31:32;6.90;;;4.10;;
77449;SDS011;66536;53.150;18.172;2023-06-22T06:33:59;6.20;;;4.00;;
77449;SDS011;66536;53.150;18.172;2023-06-22T06:36:25;6.70;;;3.90;;
77449;SDS011;66536;53.150;18.172;2023-06-22T06:38:51;4.30;;;3.30;;
77449;SDS011;66536;53.150;18.172;2023-06-22T06:41:17;4.10;;;3.10;;
77449;SDS011;66536;53.150;18.172;2023-06-22T06:43:43;6.30;;;3.20;;
77449;SDS011;66536;53.150;18.172;2023-06-22T06:46:09;7.10;;;3.60;;
77449;SDS011;66536;53.150;18.172;2023-06-22T06:48:35;5.40;;;3.00;;
77449;SDS011;66536;53.150;18.172;2023-06-22T06:51:01;6.40;;;3.00;;
77449;SDS011;66536;53.150;18.172;2023-06-22T06:53:27;4.30;;;3.10;;
77449;SDS011;66536;53.150;18.172;2023-06-22T06:55:54;4.30;;;3.00;;
77449;SDS011;66536;53.150;18.172;2023-06-22T06:58:20;5.60;;;2.90;;
77449;SDS011;66536;53.150;18.172;2023-06-22T07:00:49;6.70;;;2.90;;
77449;SDS011;66536;53.150;18.172;2023-06-22T07:03:15;10.00;;;3.30;;
77449;SDS011;66536;53.150;18.172;2023-06-22T07:05:41;4.30;;;3.10;;
77449;SDS011;66536;53.150;18.172;2023-06-22T07:08:07;5.00;;;3.00;;
77449;SDS011;66536;53.150;18.172;2023-06-22T07:10:33;6.40;;;2.70;;
77449;SDS011;66536;53.150;18.172;2023-06-22T07:12:59;3.60;;;2.90;;
77449;SDS011;66536;53.150;18.172;2023-06-22T07:15:25;5.50;;;3.00;;
77449;SDS011;66536;53.150;18.172;2023-06-22T07:17:51;3.40;;;2.60;;
77449;SDS011;66536;53.150;18.172;2023-06-22T07:20:17;3.40;;;2.70;;
77449;SDS011;66536;53.150;18.172;2023-06-22T07:22:45;4.70;;;2.70;;
77449;SDS011;66536;53.150;18.172;2023-06-22T07:25:11;2.90;;;2.10;;
77449;SDS011;66536;53.150;18.172;2023-06-22T07:27:43;4.40;;;2.40;;
77449;SDS011;66536;53.150;18.172;2023-06-22T07:30:11;3.30;;;2.50;;
77449;SDS011;66536;53.150;18.172;2023-06-22T07:32:38;4.70;;;2.40;;
77449;SDS011;66536;53.150;18.172;2023-06-22T07:35:04;3.00;;;2.20;;
77449;SDS011;66536;53.150;18.172;2023-06-22T07:37:31;3.20;;;2.50;;
77449;SDS011;66536;53.150;18.172;2023-06-22T07:39:58;4.50;;;2.70;;
77449;SDS011;66536;53.150;18.172;2023-06-22T07:42:25;3.30;;;2.50;;
77449;SDS011;66536;53.150;18.172;2023-06-22T07:44:51;5.80;;;2.50;;
77449;SDS011;66536;53.150;18.172;2023-06-22T07:47:18;6.10;;;2.70;;
77449;SDS011;66536;53.150;18.172;2023-06-22T07:49:45;4.30;;;2.60;;
77449;SDS011;66536;53.150;18.172;2023-06-22T07:52:12;4.60;;;2.50;;
77449;SDS011;66536;53.150;18.172;2023-06-22T07:54:38;4.10;;;2.40;;
77449;SDS011;66536;53.150;18.172;2023-06-22T07:57:04;4.70;;;2.90;;
77449;SDS011;66536;53.150;18.172;2023-06-22T07:59:31;2.90;;;2.60;;
77449;SDS011;66536;53.150;18.172;2023-06-22T08:01:57;3.10;;;2.60;;
77449;SDS011;66536;53.150;18.172;2023-06-22T08:04:23;4.50;;;2.60;;
77449;SDS011;66536;53.150;18.172;2023-06-22T08:07:10;6.10;;;3.70;;
77449;SDS011;66536;53.150;18.172;2023-06-22T08:09:36;3.00;;;2.60;;
77449;SDS011;66536;53.150;18.172;2023-06-22T08:12:02;4.70;;;3.00;;
77449;SDS011;66536;53.150;18.172;2023-06-22T08:14:29;4.00;;;2.40;;
77449;SDS011;66536;53.150;18.172;2023-06-22T08:16:56;4.80;;;3.10;;
77449;SDS011;66536;53.150;18.172;2023-06-22T08:19:22;5.70;;;3.10;;
77449;SDS011;66536;53.150;18.172;2023-06-22T08:21:48;3.20;;;2.80;;
77449;SDS011;66536;53.150;18.172;2023-06-22T08:24:14;4.50;;;2.80;;
77449;SDS011;66536;53.150;18.172;2023-06-22T08:26:40;3.90;;;2.80;;
77449;SDS011;66536;53.150;18.172;2023-06-22T08:29:06;4.30;;;2.70;;
77449;SDS011;66536;53.150;18.172;2023-06-22T08:31:32;3.10;;;2.50;;
77449;SDS011;66536;53.150;18.172;2023-06-22T08:34:00;3.60;;;2.70;;
77449;SDS011;66536;53.150;18.172;2023-06-22T08:36:26;3.80;;;2.40;;
77449;SDS011;66536;53.150;18.172;2023-06-22T08:38:58;3.20;;;2.70;;
77449;SDS011;66536;53.150;18.172;2023-06-22T08:41:28;3.20;;;2.70;;
77449;SDS011;66536;53.150;18.172;2023-06-22T08:43:55;5.00;;;2.60;;
77449;SDS011;66536;53.150;18.172;2023-06-22T08:46:21;3.30;;;2.70;;
77449;SDS011;66536;53.150;18.172;2023-06-22T08:48:50;2.50;;;2.30;;
77449;SDS011;66536;53.150;18.172;2023-06-22T08:51:16;6.40;;;2.60;;
77449;SDS011;66536;53.150;18.172;2023-06-22T08:53:43;3.00;;;2.30;;
77449;SDS011;66536;53.150;18.172;2023-06-22T08:56:11;3.40;;;2.60;;
77449;SDS011;66536;53.150;18.172;2023-06-22T08:58:37;3.60;;;2.40;;
77449;SDS011;66536;53.150;18.172;2023-06-22T09:01:23;3.70;;;2.60;;
77449;SDS011;66536;53.150;18.172;2023-06-22T09:03:49;2.90;;;2.40;;
77449;SDS011;66536;53.150;18.172;2023-06-22T09:06:20;5.40;;;2.40;;
77449;SDS011;66536;53.150;18.172;2023-06-22T09:08:47;4.80;;;3.40;;
77449;SDS011;66536;53.150;18.172;2023-06-22T09:11:13;3.50;;;2.40;;
77449;SDS011;66536;53.150;18.172;2023-06-22T09:13:39;4.40;;;3.00;;
77449;SDS011;66536;53.150;18.172;2023-06-22T09:16:06;5.30;;;2.80;;
77449;SDS011;66536;53.150;18.172;2023-06-22T09:18:34;6.60;;;2.30;;
77449;SDS011;66536;53.150;18.172;2023-06-22T09:21:02;4.40;;;2.80;;
77449;SDS011;66536;53.150;18.172;2023-06-22T09:23:28;6.30;;;2.70;;
77449;SDS011;66536;53.150;18.172;2023-06-22T09:25:54;3.40;;;2.40;;
77449;SDS011;66536;53.150;18.172;2023-06-22T09:28:21;3.60;;;2.60;;
77449;SDS011;66536;53.150;18.172;2023-06-22T09:30:46;4.10;;;3.10;;
77449;SDS011;66536;53.150;18.172;2023-06-22T09:33:13;5.10;;;2.50;;
77449;SDS011;66536;53.150;18.172;2023-06-22T09:35:38;4.00;;;2.40;;
77449;SDS011;66536;53.150;18.172;2023-06-22T09:38:04;3.30;;;2.40;;
77449;SDS011;66536;53.150;18.172;2023-06-22T09:40:30;3.40;;;2.60;;
77449;SDS011;66536;53.150;18.172;2023-06-22T09:43:01;7.70;;;2.30;;
77449;SDS011;66536;53.150;18.172;2023-06-22T09:45:27;3.30;;;2.00;;
77449;SDS011;66536;53.150;18.172;2023-06-22T09:47:53;3.50;;;2.30;;
77449;SDS011;66536;53.150;18.172;2023-06-22T09:50:19;3.80;;;2.80;;
77449;SDS011;66536;53.150;18.172;2023-06-22T09:52:45;2.50;;;2.10;;
77449;SDS011;66536;53.150;18.172;2023-06-22T09:55:16;6.10;;;2.60;;
77449;SDS011;66536;53.150;18.172;2023-06-22T09:57:43;2.60;;;2.30;;
77449;SDS011;66536;53.150;18.172;2023-06-22T10:00:09;3.30;;;2.80;;
77449;SDS011;66536;53.150;18.172;2023-06-22T10:02:38;3.60;;;2.50;;
77449;SDS011;66536;53.150;18.172;2023-06-22T10:05:05;3.40;;;1.90;;
77449;SDS011;66536;53.150;18.172;2023-06-22T10:07:51;3.10;;;2.10;;
77449;SDS011;66536;53.150;18.172;2023-06-22T10:10:17;4.80;;;2.40;;
77449;SDS011;66536;53.150;18.172;2023-06-22T10:12:45;3.90;;;2.60;;
77449;SDS011;66536;53.150;18.172;2023-06-22T10:15:13;4.00;;;2.30;;
77449;SDS011;66536;53.150;18.172;2023-06-22T10:17:59;3.90;;;2.10;;
77449;SDS011;66536;53.150;18.172;2023-06-22T10:20:25;8.70;;;2.70;;
77449;SDS011;66536;53.150;18.172;2023-06-22T10:22:52;3.80;;;2.40;;
77449;SDS011;66536;53.150;18.172;2023-06-22T10:25:18;4.80;;;2.30;;
77449;SDS011;66536;53.150;18.172;2023-06-22T10:27:44;3.60;;;2.50;;
77449;SDS011;66536;53.150;18.172;2023-06-22T10:30:11;4.50;;;2.70;;
77449;SDS011;66536;53.150;18.172;2023-06-22T10:32:52;2.50;;;2.30;;
77449;SDS011;66536;53.150;18.172;2023-06-22T10:35:18;3.70;;;2.50;;
77449;SDS011;66536;53.150;18.172;2023-06-22T10:37:45;6.20;;;2.60;;
77449;SDS011;66536;53.150;18.172;2023-06-22T10:40:12;2.50;;;2.30;;
77449;SDS011;66536;53.150;18.172;2023-06-22T10:42:40;3.40;;;2.40;;
77449;SDS011;66536;53.150;18.172;2023-06-22T10:45:07;4.30;;;2.70;;
77449;SDS011;66536;53.150;18.172;2023-06-22T10:47:34;3.00;;;2.40;;
77449;SDS011;66536;53.150;18.172;2023-06-22T10:50:00;4.00;;;2.60;;
77449;SDS011;66536;53.150;18.172;2023-06-22T10:52:27;2.90;;;2.50;;
77449;SDS011;66536;53.150;18.172;2023-06-22T10:54:53;3.70;;;2.70;;
77449;SDS011;66536;53.150;18.172;2023-06-22T10:57:19;4.90;;;3.70;;
77449;SDS011;66536;53.150;18.172;2023-06-22T10:59:45;3.50;;;2.70;;
77449;SDS011;66536;53.150;18.172;2023-06-22T11:02:32;4.30;;;2.50;;
77449;SDS011;66536;53.150;18.172;2023-06-22T11:04:58;4.60;;;2.20;;
77449;SDS011;66536;53.150;18.172;2023-06-22T11:07:26;4.10;;;2.50;;
77449;SDS011;66536;53.150;18.172;2023-06-22T11:09:55;2.40;;;2.00;;
77449;SDS011;66536;53.150;18.172;2023-06-22T11:12:21;2.80;;;2.30;;
77449;SDS011;66536;53.150;18.172;2023-06-22T11:14:47;4.30;;;2.70;;
77449;SDS011;66536;53.150;18.172;2023-06-22T11:17:16;3.70;;;2.70;;
77449;SDS011;66536;53.150;18.172;2023-06-22T11:19:43;4.40;;;2.50;;
77449;SDS011;66536;53.150;18.172;2023-06-22T11:22:31;3.70;;;2.60;;
77449;SDS011;66536;53.150;18.172;2023-06-22T11:24:59;2.60;;;2.40;;
77449;SDS011;66536;53.150;18.172;2023-06-22T11:27:25;3.90;;;2.40;;
77449;SDS011;66536;53.150;18.172;2023-06-22T11:29:50;3.20;;;2.50;;
77449;SDS011;66536;53.150;18.172;2023-06-22T11:32:18;3.70;;;2.70;;
77449;SDS011;66536;53.150;18.172;2023-06-22T11:34:44;3.50;;;3.00;;
77449;SDS011;66536;53.150;18.172;2023-06-22T11:37:11;4.50;;;2.90;;
77449;SDS011;66536;53.150;18.172;2023-06-22T11:39:36;3.50;;;3.20;;
77449;SDS011;66536;53.150;18.172;2023-06-22T11:42:02;4.90;;;2.90;;
77449;SDS011;66536;53.150;18.172;2023-06-22T11:44:28;5.60;;;2.90;;
77449;SDS011;66536;53.150;18.172;2023-06-22T11:46:54;3.00;;;2.70;;
77449;SDS011;66536;53.150;18.172;2023-06-22T11:49:20;6.70;;;2.40;;
77449;SDS011;66536;53.150;18.172;2023-06-22T11:51:46;2.90;;;2.60;;
77449;SDS011;66536;53.150;18.172;2023-06-22T11:54:12;2.90;;;2.60;;
77449;SDS011;66536;53.150;18.172;2023-06-22T11:56:38;3.70;;;2.60;;
77449;SDS011;66536;53.150;18.172;2023-06-22T11:59:04;2.70;;;2.50;;
77449;SDS011;66536;53.150;18.172;2023-06-22T12:01:30;5.00;;;2.50;;
77449;SDS011;66536;53.150;18.172;2023-06-22T12:04:00;3.00;;;2.70;;
77449;SDS011;66536;53.150;18.172;2023-06-22T12:06:26;5.10;;;3.90;;
77449;SDS011;66536;53.150;18.172;2023-06-22T12:08:52;3.20;;;2.90;;
77449;SDS011;66536;53.150;18.172;2023-06-22T12:11:18;5.70;;;2.80;;
77449;SDS011;66536;53.150;18.172;2023-06-22T12:13:44;4.40;;;2.60;;
77449;SDS011;66536;53.150;18.172;2023-06-22T12:16:10;2.90;;;2.60;;
77449;SDS011;66536;53.150;18.172;2023-06-22T12:18:37;4.70;;;2.60;;
77449;SDS011;66536;53.150;18.172;2023-06-22T12:21:03;2.90;;;2.60;;
77449;SDS011;66536;53.150;18.172;2023-06-22T12:23:29;5.50;;;2.40;;
77449;SDS011;66536;53.150;18.172;2023-06-22T12:25:55;2.80;;;2.40;;
77449;SDS011;66536;53.150;18.172;2023-06-22T12:28:21;4.70;;;2.70;;
77449;SDS011;66536;53.150;18.172;2023-06-22T12:30:49;5.30;;;2.60;;
77449;SDS011;66536;53.150;18.172;2023-06-22T12:33:15;3.30;;;2.70;;
77449;SDS011;66536;53.150;18.172;2023-06-22T12:35:41;4.30;;;2.70;;
77449;SDS011;66536;53.150;18.172;2023-06-22T12:38:06;2.90;;;2.50;;
77449;SDS011;66536;53.150;18.172;2023-06-22T12:40:33;5.80;;;2.90;;
77449;SDS011;66536;53.150;18.172;2023-06-22T12:43:00;5.80;;;4.00;;
77449;SDS011;66536;53.150;18.172;2023-06-22T12:45:27;4.10;;;2.60;;
77449;SDS011;66536;53.150;18.172;2023-06-22T12:47:57;2.70;;;2.40;;
77449;SDS011;66536;53.150;18.172;2023-06-22T12:50:23;3.10;;;2.80;;
77449;SDS011;66536;53.150;18.172;2023-06-22T12:52:49;4.80;;;2.50;;
77449;SDS011;66536;53.150;18.172;2023-06-22T12:55:15;3.20;;;2.60;;
77449;SDS011;66536;53.150;18.172;2023-06-22T12:57:41;4.60;;;3.00;;
77449;SDS011;66536;53.150;18.172;2023-06-22T13:00:07;3.70;;;2.40;;
77449;SDS011;66536;53.150;18.172;2023-06-22T13:02:35;3.40;;;2.60;;
77449;SDS011;66536;53.150;18.172;2023-06-22T13:05:02;3.90;;;2.60;;
77449;SDS011;66536;53.150;18.172;2023-06-22T13:07:31;4.50;;;2.50;;
77449;SDS011;66536;53.150;18.172;2023-06-22T13:09:56;3.90;;;2.50;;
77449;SDS011;66536;53.150;18.172;2023-06-22T13:12:23;3.30;;;2.60;;
77449;SDS011;66536;53.150;18.172;2023-06-22T13:14:49;2.90;;;2.40;;
77449;SDS011;66536;53.150;18.172;2023-06-22T13:17:15;3.30;;;2.80;;
77449;SDS011;66536;53.150;18.172;2023-06-22T13:19:41;3.00;;;2.70;;
77449;SDS011;66536;53.150;18.172;2023-06-22T13:22:25;3.00;;;2.70;;
77449;SDS011;66536;53.150;18.172;2023-06-22T13:24:53;3.90;;;2.30;;
77449;SDS011;66536;53.150;18.172;2023-06-22T13:27:19;3.30;;;2.90;;
77449;SDS011;66536;53.150;18.172;2023-06-22T13:29:46;5.30;;;2.70;;
77449;SDS011;66536;53.150;18.172;2023-06-22T13:32:12;3.50;;;2.50;;
77449;SDS011;66536;53.150;18.172;2023-06-22T13:34:38;5.60;;;2.90;;
77449;SDS011;66536;53.150;18.172;2023-06-22T13:37:04;4.00;;;2.60;;
77449;SDS011;66536;53.150;18.172;2023-06-22T13:39:30;4.70;;;3.00;;
77449;SDS011;66536;53.150;18.172;2023-06-22T13:41:57;4.70;;;2.80;;
77449;SDS011;66536;53.150;18.172;2023-06-22T13:44:43;2.70;;;2.50;;
77449;SDS011;66536;53.150;18.172;2023-06-22T13:47:09;3.30;;;2.80;;
77449;SDS011;66536;53.150;18.172;2023-06-22T13:49:35;2.90;;;2.50;;
77449;SDS011;66536;53.150;18.172;2023-06-22T13:52:01;7.30;;;2.90;;
77449;SDS011;66536;53.150;18.172;2023-06-22T13:54:29;2.80;;;2.50;;
77449;SDS011;66536;53.150;18.172;2023-06-22T13:56:55;6.90;;;2.70;;
77449;SDS011;66536;53.150;18.172;2023-06-22T13:59:21;3.00;;;2.50;;
77449;SDS011;66536;53.150;18.172;2023-06-22T14:01:47;3.30;;;2.80;;
77449;SDS011;66536;53.150;18.172;2023-06-22T14:04:13;3.80;;;2.90;;
77449;SDS011;66536;53.150;18.172;2023-06-22T14:06:39;3.80;;;2.50;;
77449;SDS011;66536;53.150;18.172;2023-06-22T14:09:05;3.90;;;3.00;;
77449;SDS011;66536;53.150;18.172;2023-06-22T14:11:33;3.80;;;3.00;;
77449;SDS011;66536;53.150;18.172;2023-06-22T14:13:59;4.00;;;3.00;;
77449;SDS011;66536;53.150;18.172;2023-06-22T14:16:25;5.30;;;3.20;;
77449;SDS011;66536;53.150;18.172;2023-06-22T14:19:11;5.20;;;3.50;;
77449;SDS011;66536;53.150;18.172;2023-06-22T14:21:38;4.00;;;3.70;;
77449;SDS011;66536;53.150;18.172;2023-06-22T14:24:04;4.70;;;3.90;;
77449;SDS011;66536;53.150;18.172;2023-06-22T14:26:30;4.90;;;3.60;;
77449;SDS011;66536;53.150;18.172;2023-06-22T14:28:56;4.00;;;3.60;;
77449;SDS011;66536;53.150;18.172;2023-06-22T14:31:22;4.30;;;4.00;;
77449;SDS011;66536;53.150;18.172;2023-06-22T14:33:49;4.20;;;3.80;;
77449;SDS011;66536;53.150;18.172;2023-06-22T14:36:34;4.30;;;4.00;;
77449;SDS011;66536;53.150;18.172;2023-06-22T14:39:00;4.50;;;4.00;;